Time;durP1;ratioP1;P1;durP2;ratioP2;P2;SDS_P1;SDS_P2;PMS_P1;PMS_P2;Temp;Humidity;BMP_temperature;BMP_pressure;BME280_temperature;BME280_humidity;BME280_pressure;Samples;Min_cycle;Max_cycle;Signal;HPM_P1;HPM_P2
2021/01/31 00:00:22;;;;;;;24.30;15.32;;;;;;;-1.40;67.11;100136.03;686921;28;22392;-63
2021/01/31 00:00:45;;;;;;;21.73;14.75;;;;;;;-1.41;67.09;100121.09;684174;28;106704;-64
2021/01/31 00:01:06;;;;;;;21.05;15.13;;;;;;;-1.42;67.06;100140.59;685583;28;68746;-64
2021/01/31 00:01:27;;;;;;;21.88;14.77;;;;;;;-1.44;67.10;100134.59;687448;28;12853;-64
2021/01/31 00:01:48;;;;;;;22.58;14.48;;;;;;;-1.44;67.10;100134.59;686805;28;23507;-64
2021/01/31 00:02:10;;;;;;;26.00;16.55;;;;;;;-1.46;67.26;100140.00;686918;28;23418;-65
2021/01/31 00:02:31;;;;;;;42.17;23.65;;;;;;;-1.48;67.15;100139.25;686138;28;46406;-63
2021/01/31 00:02:53;;;;;;;37.75;20.90;;;;;;;-1.49;67.21;100140.22;687194;28;23410;-62
2021/01/31 00:03:16;;;;;;;24.73;16.15;;;;;;;-1.51;67.35;100136.81;686385;28;45263;-64
2021/01/31 00:03:37;;;;;;;26.08;15.85;;;;;;;-1.51;67.32;100134.16;685270;28;68080;-64
2021/01/31 00:03:59;;;;;;;28.10;16.33;;;;;;;-1.52;67.41;100136.94;687170;28;23485;-64
2021/01/31 00:04:20;;;;;;;27.58;15.68;;;;;;;-1.52;67.43;100135.16;686434;28;41835;-65
2021/01/31 00:04:45;;;;;;;26.65;15.90;;;;;;;-1.52;67.33;100140.44;687166;28;9526;-64
2021/01/31 00:05:07;;;;;;;24.60;14.98;;;;;;;-1.54;67.40;100134.41;683364;28;115144;-65
2021/01/31 00:05:29;;;;;;;24.90;15.00;;;;;;;-1.55;67.50;100139.81;685801;28;45409;-65
2021/01/31 00:05:52;;;;;;;24.63;15.38;;;;;;;-1.56;67.44;100136.31;686363;28;45482;-65
2021/01/31 00:06:13;;;;;;;24.55;14.70;;;;;;;-1.57;67.48;100139.09;685438;28;69405;-64
2021/01/31 00:06:34;;;;;;;24.30;14.43;;;;;;;-1.57;67.60;100144.38;687032;28;23522;-65
2021/01/31 00:06:56;;;;;;;19.17;13.60;;;;;;;-1.58;67.68;100135.59;687229;28;22469;-64
2021/01/31 00:07:18;;;;;;;21.33;13.88;;;;;;;-1.57;67.67;100139.09;686260;28;45415;-64
2021/01/31 00:07:39;;;;;;;21.80;13.30;;;;;;;-1.58;67.61;100140.91;686360;28;47126;-65
2021/01/31 00:08:00;;;;;;;21.70;13.70;;;;;;;-1.58;67.55;100140.03;686426;28;23527;-65
2021/01/31 00:08:24;;;;;;;22.10;14.98;;;;;;;-1.60;67.53;100134.84;687030;28;22386;-64
2021/01/31 00:08:46;;;;;;;21.20;14.18;;;;;;;-1.59;67.53;100136.56;684491;28;92362;-65
2021/01/31 00:09:07;;;;;;;22.25;14.07;;;;;;;-1.59;67.55;100143.66;686483;28;44222;-64
2021/01/31 00:09:28;;;;;;;21.80;13.93;;;;;;;-1.60;67.58;100142.78;686790;28;24366;-65
2021/01/31 00:09:50;;;;;;;22.10;13.55;;;;;;;-1.59;67.55;100139.19;686438;28;46333;-64
2021/01/31 00:10:13;;;;;;;21.95;13.85;;;;;;;-1.58;67.50;100142.69;687160;28;21551;-64
2021/01/31 00:10:34;;;;;;;21.33;13.85;;;;;;;-1.60;67.43;100137.50;685378;28;69418;-64
2021/01/31 00:10:57;;;;;;;20.10;13.73;;;;;;;-1.60;67.31;100139.31;686281;28;47346;-65
2021/01/31 00:11:19;;;;;;;23.33;14.53;;;;;;;-1.61;67.29;100135.84;685258;28;69570;-64
2021/01/31 00:11:40;;;;;;;25.17;14.57;;;;;;;-1.62;67.35;100134.13;686052;28;44549;-64
2021/01/31 00:12:01;;;;;;;27.90;14.90;;;;;;;-1.61;67.17;100140.25;686316;28;46312;-64
2021/01/31 00:12:23;;;;;;;23.38;14.05;;;;;;;-1.63;67.06;100137.72;686933;28;22312;-64
2021/01/31 00:12:44;;;;;;;22.15;14.15;;;;;;;-1.64;67.09;100142.19;687208;28;21540;-65
2021/01/31 00:13:07;;;;;;;24.77;15.45;;;;;;;-1.65;67.11;100139.66;687129;28;23490;-64
2021/01/31 00:13:29;;;;;;;24.25;14.35;;;;;;;-1.66;67.05;100135.34;685147;28;67500;-64
2021/01/31 00:13:50;;;;;;;24.60;14.68;;;;;;;-1.67;66.99;100133.63;686362;28;46396;-64
2021/01/31 00:14:11;;;;;;;24.08;14.02;;;;;;;-1.69;66.71;100135.56;687234;28;22490;-64
2021/01/31 00:14:39;;;;;;;23.35;14.07;;;;;;;-1.70;66.89;100139.16;684942;28;60811;-65
2021/01/31 00:15:01;;;;;;;22.33;13.85;;;;;;;-1.70;66.78;100142.63;685636;28;45340;-64
2021/01/31 00:15:24;;;;;;;21.10;13.88;;;;;;;-1.72;66.74;100144.56;686516;28;23283;-64
2021/01/31 00:15:47;;;;;;;20.77;14.65;;;;;;;-1.73;66.91;100142.88;684684;28;81547;-65
2021/01/31 00:16:09;;;;;;;22.75;14.40;;;;;;;-1.73;66.81;100140.22;686219;28;46405;-64
2021/01/31 00:16:30;;;;;;;23.25;14.20;;;;;;;-1.73;67.14;100139.38;683621;28;69605;-64
2021/01/31 00:16:51;;;;;;;28.58;14.98;;;;;;;-1.74;66.81;100138.53;686703;28;21519;-64
2021/01/31 00:17:13;;;;;;;29.85;15.80;;;;;;;-1.74;66.78;100127.09;686817;28;23528;-64
2021/01/31 00:17:34;;;;;;;28.08;14.98;;;;;;;-1.74;66.74;100138.53;686720;28;21293;-64
2021/01/31 00:17:56;;;;;;;29.50;15.57;;;;;;;-1.75;66.73;100136.00;685609;28;46467;-65
2021/01/31 00:18:19;;;;;;;29.33;15.02;;;;;;;-1.74;66.77;100138.53;686272;28;47376;-64
2021/01/31 00:18:41;;;;;;;31.30;15.55;;;;;;;-1.74;66.76;100137.69;685171;28;69782;-63
2021/01/31 00:19:02;;;;;;;31.08;15.88;;;;;;;-1.74;66.61;100137.69;686328;28;45337;-63
2021/01/31 00:19:23;;;;;;;25.08;14.32;;;;;;;-1.73;66.55;100142.03;687026;28;24358;-64
2021/01/31 00:19:45;;;;;;;24.13;13.77;;;;;;;-1.74;66.59;100137.69;686905;28;23371;-65
2021/01/31 00:20:07;;;;;;;20.13;13.50;;;;;;;-1.74;66.69;100140.31;686020;28;47295;-63
2021/01/31 00:20:30;;;;;;;22.08;14.25;;;;;;;-1.74;66.60;100138.53;685871;28;44952;-64
2021/01/31 00:20:53;;;;;;;19.33;13.10;;;;;;;-1.75;66.42;100133.38;685117;28;70587;-63
2021/01/31 00:21:15;;;;;;;17.83;12.80;;;;;;;-1.74;66.50;100132.38;687173;28;15028;-64
2021/01/31 00:21:37;;;;;;;20.08;12.85;;;;;;;-1.75;66.24;100139.50;686912;28;19686;-65
2021/01/31 00:21:59;;;;;;;18.33;12.57;;;;;;;-1.75;66.31;100141.31;686646;28;23534;-66
2021/01/31 00:22:20;;;;;;;18.67;12.65;;;;;;;-1.77;66.16;100136.13;686905;28;24126;-64
2021/01/31 00:22:41;;;;;;;19.45;12.80;;;;;;;-1.77;66.30;100136.13;686357;28;45648;-64
2021/01/31 00:23:06;;;;;;;17.80;12.20;;;;;;;-1.77;66.23;100130.84;687171;28;23532;-65
2021/01/31 00:23:28;;;;;;;17.92;12.38;;;;;;;-1.78;66.05;100133.59;685706;28;56559;-63
2021/01/31 00:23:50;;;;;;;17.50;12.07;;;;;;;-1.82;66.05;100135.59;686018;28;43426;-62
2021/01/31 00:24:11;;;;;;;18.15;11.98;;;;;;;-1.79;66.15;100142.47;685815;28;46480;-61
2021/01/31 00:24:32;;;;;;;16.30;11.40;;;;;;;-1.78;66.17;100138.88;687062;28;23384;-61
2021/01/31 00:24:53;;;;;;;16.48;11.18;;;;;;;-1.81;66.19;100129.34;686644;28;23414;-62
2021/01/31 00:25:16;;;;;;;14.07;9.93;;;;;;;-1.81;66.15;100139.94;686938;28;24476;-61
2021/01/31 00:25:38;;;;;;;13.82;9.50;;;;;;;-1.82;66.23;100141.75;685225;28;69475;-63
2021/01/31 00:25:59;;;;;;;14.70;9.55;;;;;;;-1.83;66.24;100139.22;686189;28;44438;-62
2021/01/31 00:26:20;;;;;;;16.02;10.20;;;;;;;-1.85;66.24;100141.97;686893;28;23443;-62
2021/01/31 00:26:42;;;;;;;16.55;10.98;;;;;;;-1.86;66.14;100139.44;686945;28;23357;-62
2021/01/31 00:27:03;;;;;;;16.45;10.98;;;;;;;-1.85;66.35;100135.81;685908;28;46333;-60
2021/01/31 00:27:25;;;;;;;14.68;9.35;;;;;;;-1.83;66.31;100144.50;686020;28;46439;-61
2021/01/31 00:27:46;;;;;;;11.68;9.00;;;;;;;-1.83;66.43;100141.88;686769;28;23521;-60
2021/01/31 00:28:08;;;;;;;13.68;9.57;;;;;;;-1.85;66.21;100139.31;686598;28;23480;-62
2021/01/31 00:28:29;;;;;;;14.32;10.23;;;;;;;-1.86;66.17;100142.09;686066;28;46304;-61
2021/01/31 00:28:50;;;;;;;14.65;10.93;;;;;;;-1.86;66.16;100142.91;686874;28;23587;-62
2021/01/31 00:29:11;;;;;;;13.95;10.95;;;;;;;-1.84;66.18;100142.81;686855;28;21539;-58
2021/01/31 00:29:33;;;;;;;14.52;10.05;;;;;;;-1.85;66.12;100141.13;686788;28;21550;-57
2021/01/31 00:29:54;;;;;;;15.00;9.80;;;;;;;-1.85;66.14;100144.63;685894;28;39605;-64
2021/01/31 00:30:18;;;;;;;13.95;9.60;;;;;;;-1.85;66.09;100146.41;686735;28;23542;-59
2021/01/31 00:30:42;;;;;;;12.70;9.52;;;;;;;-1.85;66.25;100146.41;683436;28;113758;-57
2021/01/31 00:31:03;;;;;;;14.48;10.25;;;;;;;-1.86;66.14;100142.09;685534;28;67509;-58
2021/01/31 00:31:24;;;;;;;13.40;9.85;;;;;;;-1.86;65.94;100147.38;686614;28;22662;-61
2021/01/31 00:31:46;;;;;;;14.40;9.90;;;;;;;-1.88;65.88;100142.19;685910;28;46205;-59
2021/01/31 00:32:07;;;;;;;13.13;9.77;;;;;;;-1.87;65.88;100150.97;686808;28;23483;-61
2021/01/31 00:32:29;;;;;;;13.90;9.85;;;;;;;-1.87;65.94;100148.31;687020;28;22411;-61
2021/01/31 00:32:51;;;;;;;12.85;9.45;;;;;;;-1.88;66.04;100147.50;687070;28;22469;-62
2021/01/31 00:33:13;;;;;;;14.15;9.75;;;;;;;-1.88;65.94;100144.84;686224;28;46622;-58
2021/01/31 00:33:35;;;;;;;13.55;9.57;;;;;;;-1.88;65.83;100152.78;685187;28;70128;-62
2021/01/31 00:33:56;;;;;;;15.68;9.73;;;;;;;-1.87;65.83;100154.47;687085;28;22874;-59
2021/01/31 00:34:17;;;;;;;14.75;9.07;;;;;;;-1.85;65.95;100146.41;687078;28;23458;-60
2021/01/31 00:34:39;;;;;;;11.40;8.65;;;;;;;-1.85;65.71;100144.63;687044;28;23566;-61
2021/01/31 00:35:00;;;;;;;12.25;8.65;;;;;;;-1.85;65.73;100143.75;685788;28;45954;-63
2021/01/31 00:35:24;;;;;;;11.88;8.65;;;;;;;-1.87;65.80;100146.50;687214;28;17593;-62
2021/01/31 00:35:45;;;;;;;13.13;9.52;;;;;;;-1.89;65.66;100145.78;684733;28;92737;-59
2021/01/31 00:36:08;;;;;;;12.07;8.88;;;;;;;-1.90;65.64;100144.09;686374;28;46630;-62
2021/01/31 00:36:30;;;;;;;12.43;9.43;;;;;;;-1.92;65.67;100146.00;685261;28;69501;-59
2021/01/31 00:36:51;;;;;;;13.38;9.27;;;;;;;-1.93;65.58;100149.59;687184;28;22406;-60
2021/01/31 00:37:14;;;;;;;13.98;9.43;;;;;;;-1.93;65.53;100149.59;687240;28;23484;-60
2021/01/31 00:37:35;;;;;;;13.80;9.63;;;;;;;-1.94;65.63;100147.06;685268;28;70525;-63
2021/01/31 00:38:02;;;;;;;13.82;9.85;;;;;;;-1.96;65.74;100149.81;686766;28;13670;-63
2021/01/31 00:38:24;;;;;;;12.75;8.50;;;;;;;-1.95;65.66;100151.53;684672;28;92322;-63
2021/01/31 00:38:45;;;;;;;11.95;8.57;;;;;;;-1.97;65.72;100142.03;686514;28;45992;-62
2021/01/31 00:39:08;;;;;;;11.57;8.45;;;;;;;-1.98;65.80;100148.28;685961;28;45447;-63
2021/01/31 00:39:29;;;;;;;12.50;8.63;;;;;;;-2.01;65.69;100149.31;686582;28;37477;-62
2021/01/31 00:39:51;;;;;;;10.75;8.38;;;;;;;-2.04;65.66;100144.25;686578;28;45061;-64
2021/01/31 00:40:13;;;;;;;10.98;8.70;;;;;;;-2.07;65.45;100142.69;686573;28;44032;-63
2021/01/31 00:40:35;;;;;;;11.00;8.52;;;;;;;-2.08;65.45;100143.63;686163;28;43411;-64
2021/01/31 00:40:58;;;;;;;9.80;8.32;;;;;;;-2.10;65.60;100147.34;687136;28;15034;-62
2021/01/31 00:41:19;;;;;;;12.18;8.73;;;;;;;-2.10;65.51;100137.63;686832;28;22402;-63
2021/01/31 00:41:48;;;;;;;11.60;8.52;;;;;;;-2.10;65.82;100147.34;684893;28;84540;-59
2021/01/31 00:42:09;;;;;;;10.77;8.20;;;;;;;-2.09;65.76;100146.41;687094;28;23546;-61
2021/01/31 00:42:31;;;;;;;10.23;8.13;;;;;;;-2.09;65.71;100146.41;686938;28;21408;-62
2021/01/31 00:42:52;;;;;;;10.05;7.93;;;;;;;-2.10;65.91;100144.69;686335;28;23383;-61
2021/01/31 00:43:14;;;;;;;9.65;7.75;;;;;;;-2.14;65.91;100146.72;686247;28;44352;-62
2021/01/31 00:43:35;;;;;;;11.23;8.02;;;;;;;-2.16;65.86;100148.66;687012;28;22395;-62
2021/01/31 00:43:59;;;;;;;10.77;8.10;;;;;;;-2.19;65.89;100148.84;684535;28;92355;-62
2021/01/31 00:44:21;;;;;;;10.68;8.27;;;;;;;-2.21;65.94;100148.09;687127;28;22476;-62
2021/01/31 00:44:43;;;;;;;10.70;8.35;;;;;;;-2.23;66.02;100148.22;686402;28;23442;-62
2021/01/31 00:45:07;;;;;;;10.85;8.15;;;;;;;-2.25;66.00;100144.00;684809;28;70308;-62
2021/01/31 00:45:29;;;;;;;9.50;7.65;;;;;;;-2.25;66.05;100144.84;684081;28;92259;-58
2021/01/31 00:45:52;;;;;;;9.57;7.78;;;;;;;-2.28;66.15;100141.56;685934;28;44422;-61
2021/01/31 00:46:14;;;;;;;10.05;8.00;;;;;;;-2.30;66.10;100140.84;684922;28;69389;-61
2021/01/31 00:46:36;;;;;;;10.13;7.50;;;;;;;-2.31;66.15;100144.44;682989;28;46304;-61
2021/01/31 00:46:58;;;;;;;10.40;7.82;;;;;;;-2.35;66.37;100143.81;680788;28;46399;-62
2021/01/31 00:47:21;;;;;;;10.65;8.10;;;;;;;-2.37;66.23;100141.28;678072;29;47261;-60
2021/01/31 00:47:42;;;;;;;10.23;7.85;;;;;;;-2.38;66.11;100144.03;676894;29;69488;-61
2021/01/31 00:48:04;;;;;;;9.90;7.95;;;;;;;-2.39;66.28;100144.97;678519;29;21549;-61
2021/01/31 00:48:25;;;;;;;9.60;7.85;;;;;;;-2.42;66.37;100145.19;676525;29;46424;-60
2021/01/31 00:48:50;;;;;;;9.38;7.60;;;;;;;-2.44;66.10;100145.31;678514;29;46264;-58
2021/01/31 00:49:11;;;;;;;11.00;8.13;;;;;;;-2.43;66.48;100154.06;681601;28;52452;-60
2021/01/31 00:49:33;;;;;;;12.05;8.35;;;;;;;-2.43;66.28;100149.66;683458;28;46408;-61
2021/01/31 00:49:54;;;;;;;9.52;7.70;;;;;;;-2.42;66.49;100146.03;684095;28;27105;-61
2021/01/31 00:50:18;;;;;;;10.07;7.38;;;;;;;-2.44;66.25;100150.59;685208;28;24428;-62
2021/01/31 00:50:40;;;;;;;11.05;8.05;;;;;;;-2.44;66.31;100152.41;684170;28;92309;-59
2021/01/31 00:51:07;;;;;;;11.07;7.72;;;;;;;-2.44;66.38;100147.09;683238;28;133197;-61
2021/01/31 00:51:28;;;;;;;11.00;8.00;;;;;;;-2.47;66.00;100145.53;686320;28;20208;-58
2021/01/31 00:51:50;;;;;;;10.73;7.78;;;;;;;-2.49;66.14;100152.72;685655;28;23467;-59
2021/01/31 00:52:12;;;;;;;10.38;8.05;;;;;;;-2.52;65.91;100155.59;682112;28;69445;-59
2021/01/31 00:52:33;;;;;;;11.23;8.23;;;;;;;-2.55;66.07;100147.88;683245;28;46330;-59
2021/01/31 00:52:55;;;;;;;11.55;8.23;;;;;;;-2.57;66.02;100147.97;680780;29;23437;-63
2021/01/31 00:53:16;;;;;;;12.07;8.13;;;;;;;-2.57;66.10;100150.63;678737;29;21523;-58
2021/01/31 00:53:40;;;;;;;11.45;8.13;;;;;;;-2.57;66.09;100152.38;676151;29;92133;-59
2021/01/31 00:54:07;;;;;;;11.38;8.13;;;;;;;-2.57;66.01;100155.03;674917;29;138058;-57
2021/01/31 00:54:28;;;;;;;11.50;8.07;;;;;;;-2.60;66.26;100153.47;678499;29;67890;-56
2021/01/31 00:54:50;;;;;;;12.02;8.45;;;;;;;-2.61;66.42;100154.41;680155;29;22363;-62
2021/01/31 00:55:13;;;;;;;10.98;8.27;;;;;;;-2.61;66.25;100159.69;677230;29;42337;-59
2021/01/31 00:55:35;;;;;;;12.60;8.32;;;;;;;-2.63;66.22;100155.50;674264;29;68485;-62
2021/01/31 00:55:57;;;;;;;11.15;8.32;;;;;;;-2.66;66.23;100150.41;676827;29;37961;-61
2021/01/31 00:56:28;;;;;;;10.00;8.00;;;;;;;-2.67;66.56;100156.66;674497;29;138497;-61
2021/01/31 00:56:50;;;;;;;11.10;8.32;;;;;;;-2.67;66.38;100157.47;680222;29;22397;-62
2021/01/31 00:57:11;;;;;;;11.20;8.40;;;;;;;-2.70;66.47;100162.16;684274;28;1185;-62
2021/01/31 00:57:33;;;;;;;11.45;8.32;;;;;;;-2.72;66.39;100159.59;683143;28;23407;-64
2021/01/31 00:57:54;;;;;;;11.50;8.30;;;;;;;-2.73;66.49;100149.97;683911;28;23515;-62
2021/01/31 00:58:16;;;;;;;13.50;8.77;;;;;;;-2.73;66.54;100156.13;680200;29;46406;-60
2021/01/31 00:58:39;;;;;;;11.40;8.23;;;;;;;-2.73;66.62;100160.53;678897;29;92131;-61
2021/01/31 00:59:00;;;;;;;12.88;8.60;;;;;;;-2.73;66.55;100155.25;679074;29;23252;-59
2021/01/31 00:59:22;;;;;;;12.23;8.13;;;;;;;-2.73;66.53;100155.25;679465;29;24320;-59
2021/01/31 00:59:44;;;;;;;11.13;8.00;;;;;;;-2.73;66.63;100155.25;677427;29;44371;-58
2021/01/31 01:00:19;;;;;;;12.50;8.55;;;;;;;-2.75;66.64;100158.00;676141;29;45260;-59
2021/01/31 01:00:41;;;;;;;12.10;8.45;;;;;;;-2.75;66.74;100160.66;674564;29;135983;-64
2021/01/31 01:01:08;;;;;;;10.93;8.70;;;;;;;-2.76;66.60;100153.69;679685;29;66546;-60
2021/01/31 01:01:30;;;;;;;10.68;8.70;;;;;;;-2.78;66.63;100158.22;679251;29;2641;-58
2021/01/31 01:01:55;;;;;;;11.77;8.45;;;;;;;-2.80;66.64;100156.66;677049;29;15069;-59
2021/01/31 01:02:19;;;;;;;13.63;9.00;;;;;;;-2.82;66.75;100155.88;675557;29;41790;-55
2021/01/31 01:02:41;;;;;;;11.70;8.02;;;;;;;-2.83;67.02;100152.41;676329;29;93282;-61
2021/01/31 01:03:03;;;;;;;11.75;8.32;;;;;;;-2.84;66.93;100150.72;677737;29;46110;-57
2021/01/31 01:03:45;;;;;;;13.68;8.85;;;;;;;-2.88;66.93;100151.03;679188;28;123536;-59
2021/01/31 01:04:14;;;;;;;14.32;9.18;;;;;;;-2.88;67.08;100156.31;677419;29;135969;-61
2021/01/31 01:04:51;;;;;;;10.40;8.02;;;;;;;-2.91;66.98;100155.56;678439;28;137759;-59
2021/01/31 01:05:14;;;;;;;10.85;8.63;;;;;;;-2.91;67.10;100155.56;684046;28;22422;-58
2021/01/31 01:05:35;;;;;;;10.32;8.10;;;;;;;-2.91;67.33;100155.56;681949;28;69431;-59
2021/01/31 01:05:57;;;;;;;11.77;8.23;;;;;;;-2.93;67.19;100154.84;684255;28;22377;-59
2021/01/31 01:06:18;;;;;;;12.00;8.00;;;;;;;-2.95;67.15;100156.72;686043;28;47398;-57
2021/01/31 01:06:39;;;;;;;12.30;8.65;;;;;;;-2.97;67.11;100156.00;686827;28;22444;-58
2021/01/31 01:07:01;;;;;;;13.02;8.65;;;;;;;-2.99;67.22;100157.06;687062;28;23392;-61
2021/01/31 01:07:22;;;;;;;12.48;8.65;;;;;;;-2.98;67.39;100158.75;686232;28;46307;-60
2021/01/31 01:07:43;;;;;;;11.90;8.48;;;;;;;-2.99;67.30;100157.06;686915;28;21577;-59
2021/01/31 01:08:05;;;;;;;11.05;8.43;;;;;;;-3.00;67.38;100161.50;685387;28;45241;-59
2021/01/31 01:08:33;;;;;;;12.77;9.05;;;;;;;-3.01;67.60;100161.59;687508;28;5396;-63
2021/01/31 01:08:54;;;;;;;12.57;8.82;;;;;;;-3.02;67.59;100154.63;682993;28;136617;-61
2021/01/31 01:09:20;;;;;;;14.38;9.52;;;;;;;-3.04;67.48;100161.78;687140;28;21571;-60
2021/01/31 01:09:45;;;;;;;13.10;9.20;;;;;;;-3.09;67.62;100155.06;684543;28;83391;-62
2021/01/31 01:10:07;;;;;;;12.40;9.23;;;;;;;-3.09;67.69;100160.34;684573;28;92419;-61
2021/01/31 01:10:32;;;;;;;11.10;8.75;;;;;;;-3.11;67.66;100156.94;686975;28;24336;-64
2021/01/31 01:10:53;;;;;;;13.20;9.02;;;;;;;-3.13;67.70;100161.47;686307;28;38064;-61
2021/01/31 01:11:15;;;;;;;13.65;9.35;;;;;;;-3.12;67.79;100159.66;685590;28;46418;-61
2021/01/31 01:11:36;;;;;;;12.45;9.18;;;;;;;-3.14;67.76;100162.41;687660;28;1654;-59
2021/01/31 01:11:57;;;;;;;12.60;9.27;;;;;;;-3.15;68.06;100152.81;686880;28;22499;-62
2021/01/31 01:12:18;;;;;;;14.63;9.32;;;;;;;-3.13;67.90;100158.84;686996;28;23486;-63
2021/01/31 01:12:40;;;;;;;14.18;9.40;;;;;;;-3.14;68.01;100156.28;686914;28;23547;-59
2021/01/31 01:13:04;;;;;;;12.40;9.07;;;;;;;-3.14;68.01;100158.94;686289;28;44585;-63
2021/01/31 01:13:26;;;;;;;13.00;8.90;;;;;;;-3.14;67.96;100156.28;684229;28;93215;-62
2021/01/31 01:13:47;;;;;;;15.10;8.85;;;;;;;-3.14;68.06;100156.28;686667;28;22191;-58
2021/01/31 01:14:09;;;;;;;14.38;9.00;;;;;;;-3.15;68.08;100152.81;686499;28;23085;-60
2021/01/31 01:14:31;;;;;;;14.57;9.27;;;;;;;-3.16;68.15;100152.91;686080;28;44387;-60
2021/01/31 01:14:52;;;;;;;12.70;9.18;;;;;;;-3.16;68.17;100150.28;686176;28;47375;-61
2021/01/31 01:15:17;;;;;;;12.52;8.93;;;;;;;-3.18;67.95;100158.31;687318;28;903;-62
2021/01/31 01:15:39;;;;;;;13.48;9.25;;;;;;;-3.18;68.05;100152.16;685035;28;69732;-62
2021/01/31 01:16:00;;;;;;;13.07;8.93;;;;;;;-3.21;68.08;100149.72;686111;28;44034;-58
2021/01/31 01:16:23;;;;;;;13.05;8.98;;;;;;;-3.20;68.26;100156.72;687409;28;875;-60
2021/01/31 01:16:44;;;;;;;12.52;8.82;;;;;;;-3.21;68.06;100153.22;686975;28;17537;-58
2021/01/31 01:17:06;;;;;;;13.02;9.10;;;;;;;-3.23;68.38;100157.75;686841;28;23526;-61
2021/01/31 01:17:27;;;;;;;13.40;8.80;;;;;;;-3.24;68.26;100153.44;686918;28;19515;-62
2021/01/31 01:17:48;;;;;;;13.77;9.02;;;;;;;-3.23;68.16;100151.63;687031;28;21360;-61
2021/01/31 01:18:09;;;;;;;13.65;8.85;;;;;;;-3.23;68.15;100144.53;686811;28;12800;-58
2021/01/31 01:18:31;;;;;;;11.80;8.52;;;;;;;-3.23;68.46;100149.81;687093;28;7906;-58
2021/01/31 01:18:52;;;;;;;12.80;8.30;;;;;;;-3.22;68.33;100148.06;687135;28;23431;-61
2021/01/31 01:19:13;;;;;;;13.48;8.70;;;;;;;-3.24;68.18;100149.94;686275;28;44451;-58
2021/01/31 01:19:34;;;;;;;14.10;9.55;;;;;;;-3.26;68.37;100150.91;687535;28;8534;-60
2021/01/31 01:19:56;;;;;;;14.10;9.15;;;;;;;-3.26;68.30;100152.66;687106;28;22489;-64
2021/01/31 01:20:17;;;;;;;12.38;8.82;;;;;;;-3.28;68.31;100147.50;686586;28;22456;-58
2021/01/31 01:20:39;;;;;;;12.05;8.60;;;;;;;-3.29;68.21;100153.75;686000;28;46388;-63
2021/01/31 01:21:00;;;;;;;12.57;8.60;;;;;;;-3.31;68.51;100147.72;687157;28;22402;-64
2021/01/31 01:21:21;;;;;;;15.77;8.98;;;;;;;-3.29;68.32;100145.81;687001;28;23442;-61
2021/01/31 01:21:42;;;;;;;13.65;9.07;;;;;;;-3.29;68.56;100153.75;686968;28;22424;-61
2021/01/31 01:22:03;;;;;;;12.88;8.98;;;;;;;-3.29;68.41;100151.09;685460;28;47201;-59
2021/01/31 01:22:24;;;;;;;13.23;9.32;;;;;;;-3.28;68.52;100150.13;686876;28;22211;-63
2021/01/31 01:22:48;;;;;;;13.15;8.90;;;;;;;-3.27;68.53;100145.72;687472;28;891;-59
2021/01/31 01:23:09;;;;;;;12.05;8.65;;;;;;;-3.29;68.33;100145.81;685813;28;46281;-62
2021/01/31 01:23:30;;;;;;;11.43;8.13;;;;;;;-3.29;68.50;100144.97;684320;28;5299;-61
2021/01/31 01:23:52;;;;;;;12.18;8.63;;;;;;;-3.30;68.43;100146.75;684162;28;21540;-59
2021/01/31 01:24:13;;;;;;;10.85;8.45;;;;;;;-3.30;68.59;100145.91;683240;28;46336;-58
2021/01/31 01:24:35;;;;;;;11.60;8.57;;;;;;;-3.29;68.34;100150.25;684057;28;22370;-60
2021/01/31 01:24:56;;;;;;;12.30;8.55;;;;;;;-3.28;68.45;100150.13;683012;28;47700;-61
2021/01/31 01:25:19;;;;;;;11.80;8.55;;;;;;;-3.27;68.53;100148.34;684199;28;22420;-56
2021/01/31 01:25:44;;;;;;;12.60;8.55;;;;;;;-3.29;68.38;100144.97;685412;28;60781;-59
2021/01/31 01:26:05;;;;;;;12.10;8.43;;;;;;;-3.31;68.49;100147.72;686834;28;22412;-59
2021/01/31 01:26:27;;;;;;;12.95;8.55;;;;;;;-3.31;68.33;100150.38;686700;28;21549;-61
2021/01/31 01:26:49;;;;;;;11.57;7.93;;;;;;;-3.31;68.54;100147.72;684265;28;1342;-60
2021/01/31 01:27:11;;;;;;;14.10;8.65;;;;;;;-3.33;68.39;100152.25;684122;28;22454;-61
2021/01/31 01:27:32;;;;;;;11.68;8.00;;;;;;;-3.34;68.63;100150.56;682913;28;46334;-59
2021/01/31 01:27:53;;;;;;;12.10;8.45;;;;;;;-3.34;68.65;100145.28;684071;28;17585;-58
2021/01/31 01:28:15;;;;;;;13.68;8.55;;;;;;;-3.36;68.71;100146.31;686109;28;21859;-60
2021/01/31 01:28:37;;;;;;;13.82;8.63;;;;;;;-3.35;68.85;100145.38;687242;28;922;-60
2021/01/31 01:28:59;;;;;;;11.45;8.40;;;;;;;-3.34;68.94;100153.22;685446;28;46443;-58
2021/01/31 01:29:20;;;;;;;11.90;8.52;;;;;;;-3.34;68.92;100144.41;686488;28;22548;-62
2021/01/31 01:29:44;;;;;;;11.90;8.35;;;;;;;-3.34;68.99;100142.66;686413;28;22390;-58
2021/01/31 01:30:06;;;;;;;13.40;8.35;;;;;;;-3.33;68.93;100144.31;684425;28;93445;-60
2021/01/31 01:30:30;;;;;;;12.98;8.35;;;;;;;-3.33;68.89;100146.97;686544;28;28356;-62
2021/01/31 01:30:51;;;;;;;11.02;8.18;;;;;;;-3.35;68.90;100151.50;684368;28;92073;-58
2021/01/31 01:31:12;;;;;;;12.80;8.77;;;;;;;-3.36;68.84;100152.44;686974;28;22615;-60
2021/01/31 01:31:33;;;;;;;12.95;8.48;;;;;;;-3.38;69.08;100143.78;686669;28;23494;-61
2021/01/31 01:31:55;;;;;;;12.18;8.32;;;;;;;-3.37;68.81;100152.53;686248;28;44392;-61
2021/01/31 01:32:16;;;;;;;11.00;8.35;;;;;;;-3.38;68.84;100153.50;686936;28;22413;-61
2021/01/31 01:32:37;;;;;;;10.68;7.88;;;;;;;-3.42;69.08;100150.22;686853;28;23600;-60
2021/01/31 01:32:59;;;;;;;10.68;7.95;;;;;;;-3.42;69.08;100149.38;685812;28;47117;-62
2021/01/31 01:33:21;;;;;;;12.27;8.40;;;;;;;-3.44;69.07;100144.19;686151;28;39541;-62
2021/01/31 01:33:42;;;;;;;12.93;9.00;;;;;;;-3.46;69.07;100143.47;685971;28;46298;-59
2021/01/31 01:34:04;;;;;;;12.70;8.50;;;;;;;-3.46;69.19;100146.09;686213;28;23543;-61
2021/01/31 01:34:25;;;;;;;12.23;8.48;;;;;;;-3.47;69.43;100147.88;686048;28;46288;-62
2021/01/31 01:34:46;;;;;;;13.05;8.73;;;;;;;-3.48;69.33;100146.19;687393;28;9881;-62
2021/01/31 01:35:10;;;;;;;11.43;8.48;;;;;;;-3.49;69.37;100149.78;687112;28;15148;-61
2021/01/31 01:35:31;;;;;;;14.27;9.18;;;;;;;-3.49;69.50;100148.94;685083;28;67492;-62
2021/01/31 01:35:52;;;;;;;12.15;8.45;;;;;;;-3.51;69.68;100149.03;687393;28;11766;-62
2021/01/31 01:36:14;;;;;;;12.27;8.73;;;;;;;-3.53;69.54;100152.72;686408;28;41661;-59
2021/01/31 01:36:35;;;;;;;12.50;8.65;;;;;;;-3.52;69.61;100157.91;687306;28;10613;-57
2021/01/31 01:36:56;;;;;;;13.10;8.75;;;;;;;-3.54;69.76;100156.28;686143;28;38159;-61
2021/01/31 01:37:19;;;;;;;12.05;8.88;;;;;;;-3.55;69.64;100152.81;687174;28;8310;-59
2021/01/31 01:37:40;;;;;;;12.68;8.57;;;;;;;-3.55;69.89;100154.63;685308;28;68878;-60
2021/01/31 01:38:02;;;;;;;14.80;8.93;;;;;;;-3.57;70.09;100148.56;687046;28;21541;-57
2021/01/31 01:38:23;;;;;;;12.20;8.68;;;;;;;-3.57;70.02;100149.44;684980;28;65567;-61
2021/01/31 01:38:45;;;;;;;10.20;8.60;;;;;;;-3.57;69.85;100153.84;687257;28;1956;-61
2021/01/31 01:39:07;;;;;;;11.02;8.30;;;;;;;-3.59;69.98;100153.13;686988;28;21856;-62
2021/01/31 01:39:28;;;;;;;12.95;8.60;;;;;;;-3.60;69.77;100154.06;686922;28;23336;-59
2021/01/31 01:39:50;;;;;;;12.70;8.23;;;;;;;-3.58;69.83;100153.03;687022;28;22549;-59
2021/01/31 01:40:19;;;;;;;12.02;7.95;;;;;;;-3.59;70.31;100147.84;687431;28;866;-60
2021/01/31 01:40:40;;;;;;;12.13;8.40;;;;;;;-3.63;69.91;100144.56;682483;28;160889;-60
2021/01/31 01:41:02;;;;;;;11.65;8.35;;;;;;;-3.60;70.17;100152.28;686684;28;44409;-59
2021/01/31 01:41:35;;;;;;;11.65;7.63;;;;;;;-3.60;70.25;100148.78;686224;28;61762;-61
2021/01/31 01:41:56;;;;;;;11.13;8.88;;;;;;;-3.60;70.38;100147.00;683486;28;139093;-58
2021/01/31 01:42:17;;;;;;;11.02;8.20;;;;;;;-3.59;70.21;100150.47;688372;28;858;-60
2021/01/31 01:42:40;;;;;;;12.23;8.40;;;;;;;-3.62;70.34;100146.28;687143;28;22398;-63
2021/01/31 01:43:01;;;;;;;12.35;8.70;;;;;;;-3.64;70.32;100143.72;686177;28;43748;-60
2021/01/31 01:43:22;;;;;;;12.32;9.27;;;;;;;-3.66;70.45;100142.97;686761;28;45398;-60
2021/01/31 01:43:44;;;;;;;14.25;9.63;;;;;;;-3.67;70.44;100137.78;687206;28;23465;-59